createdAt,value
2022-07-30T00:00:11.000Z,60.80
2022-07-30T00:01:11.000Z,60.97
2022-07-30T00:02:11.000Z,61.66
2022-07-30T00:03:11.000Z,61.19
2022-07-30T00:04:11.000Z,61.12
2022-07-30T00:05:10.000Z,61.37
2022-07-30T00:06:11.000Z,61.22
2022-07-30T00:07:11.000Z,61.86
2022-07-30T00:08:11.000Z,61.07
2022-07-30T00:09:11.000Z,61.92
2022-07-30T00:10:11.000Z,61.30
2022-07-30T00:11:11.000Z,61.47
2022-07-30T00:12:11.000Z,61.41
2022-07-30T00:13:11.000Z,61.83
2022-07-30T00:14:11.000Z,62.10
2022-07-30T00:15:11.000Z,61.86
2022-07-30T00:16:11.000Z,61.86
2022-07-30T00:17:11.000Z,61.98
2022-07-30T00:18:11.000Z,61.45
2022-07-30T00:19:11.000Z,61.90
2022-07-30T00:20:11.000Z,61.66
2022-07-30T00:21:11.000Z,61.88
2022-07-30T00:22:11.000Z,61.21
2022-07-30T00:23:11.000Z,61.30
2022-07-30T00:24:11.000Z,61.70
2022-07-30T00:25:11.000Z,61.89
2022-07-30T00:26:10.000Z,62.32
2022-07-30T00:27:13.000Z,62.68
2022-07-30T00:28:11.000Z,62.08
2022-07-30T00:29:11.000Z,62.49
2022-07-30T00:30:11.000Z,61.94
2022-07-30T00:31:11.000Z,61.90
2022-07-30T00:32:11.000Z,62.72
2022-07-30T00:33:11.000Z,62.29
2022-07-30T00:34:11.000Z,61.83
2022-07-30T00:35:11.000Z,62.53
2022-07-30T00:36:11.000Z,62.70
2022-07-30T00:37:11.000Z,62.58
2022-07-30T00:38:11.000Z,62.51
2022-07-30T00:39:11.000Z,62.45
2022-07-30T00:40:11.000Z,62.07
2022-07-30T00:41:11.000Z,62.06
2022-07-30T00:42:10.000Z,62.88
2022-07-30T00:43:15.000Z,62.68
2022-07-30T00:44:10.000Z,62.36
2022-07-30T00:45:12.000Z,62.66
2022-07-30T00:46:11.000Z,62.79
2022-07-30T00:47:11.000Z,62.67
2022-07-30T00:48:12.000Z,62.86
2022-07-30T00:49:10.000Z,62.57
2022-07-30T00:50:12.000Z,62.16
2022-07-30T00:51:10.000Z,63.25
2022-07-30T00:52:11.000Z,62.97
2022-07-30T00:53:10.000Z,63.18
2022-07-30T00:54:14.000Z,63.46
2022-07-30T00:55:13.000Z,63.43
2022-07-30T00:56:11.000Z,62.81
2022-07-30T00:57:11.000Z,62.62
2022-07-30T00:58:11.000Z,62.94
2022-07-30T00:59:11.000Z,62.56
2022-07-30T01:00:14.000Z,62.84
2022-07-30T01:01:10.000Z,62.96
2022-07-30T01:02:11.000Z,63.18
2022-07-30T01:03:10.000Z,63.34
2022-07-30T01:04:11.000Z,63.07
2022-07-30T01:05:11.000Z,62.67
2022-07-30T01:06:11.000Z,63.28
2022-07-30T01:07:11.000Z,62.90
2022-07-30T01:08:10.000Z,62.95
2022-07-30T01:09:10.000Z,62.72
2022-07-30T01:10:13.000Z,62.84
2022-07-30T01:11:11.000Z,63.32
2022-07-30T01:12:15.000Z,63.21
2022-07-30T01:13:11.000Z,63.69
2022-07-30T01:14:11.000Z,63.61
2022-07-30T01:15:11.000Z,63.44
2022-07-30T01:16:13.000Z,63.40
2022-07-30T01:17:10.000Z,63.26
2022-07-30T01:18:13.000Z,63.64
2022-07-30T01:19:23.000Z,63.08
2022-07-30T01:20:15.000Z,62.91
2022-07-30T01:21:14.000Z,62.82
2022-07-30T01:22:33.000Z,63.56
2022-07-30T01:23:21.000Z,63.15
2022-07-30T01:24:20.000Z,62.82
2022-07-30T01:25:20.000Z,63.06
2022-07-30T01:26:17.000Z,62.88
2022-07-30T01:27:12.000Z,63.73
2022-07-30T01:28:19.000Z,63.29
2022-07-30T01:29:13.000Z,64.15
2022-07-30T01:30:15.000Z,63.68
2022-07-30T01:31:13.000Z,64.71
2022-07-30T01:32:12.000Z,64.55
2022-07-30T01:33:13.000Z,64.89
2022-07-30T01:34:15.000Z,64.87
2022-07-30T01:35:12.000Z,64.37
2022-07-30T01:36:15.000Z,65.17
2022-07-30T01:37:12.000Z,64.87
2022-07-30T01:38:12.000Z,65.35
2022-07-30T01:39:13.000Z,65.42
2022-07-30T01:40:11.000Z,65.17
2022-07-30T01:41:13.000Z,65.47
2022-07-30T01:42:12.000Z,65.50
2022-07-30T01:43:11.000Z,65.38
2022-07-30T01:44:12.000Z,65.21
2022-07-30T01:45:12.000Z,64.75
2022-07-30T01:46:13.000Z,64.46
2022-07-30T01:47:13.000Z,64.41
2022-07-30T01:48:13.000Z,65.59
2022-07-30T01:49:12.000Z,65.07
2022-07-30T01:50:13.000Z,64.43
2022-07-30T01:51:12.000Z,65.17
2022-07-30T01:52:13.000Z,64.92
2022-07-30T01:53:21.000Z,64.60
2022-07-30T01:54:12.000Z,65.01
2022-07-30T01:55:15.000Z,64.57
2022-07-30T01:56:13.000Z,64.90
2022-07-30T01:57:13.000Z,64.82
2022-07-30T01:58:13.000Z,65.36
2022-07-30T01:59:13.000Z,65.34
2022-07-30T02:00:12.000Z,65.65
2022-07-30T02:01:11.000Z,65.76
2022-07-30T02:02:11.000Z,66.04
2022-07-30T02:03:11.000Z,65.79
2022-07-30T02:04:11.000Z,66.34
2022-07-30T02:05:11.000Z,66.60
2022-07-30T02:06:20.000Z,65.84
2022-07-30T02:07:18.000Z,65.72
2022-07-30T02:08:18.000Z,66.73
2022-07-30T02:09:14.000Z,66.30
2022-07-30T02:10:21.000Z,66.55
2022-07-30T02:11:14.000Z,66.33
2022-07-30T02:12:21.000Z,67.40
2022-07-30T02:13:15.000Z,67.54
2022-07-30T02:14:20.000Z,67.44
2022-07-30T02:15:26.000Z,67.20
2022-07-30T02:16:20.000Z,66.69
2022-07-30T02:17:17.000Z,67.47
2022-07-30T02:18:19.000Z,67.47
2022-07-30T02:19:16.000Z,67.40
2022-07-30T02:20:14.000Z,67.73
2022-07-30T02:21:11.000Z,67.99
2022-07-30T02:22:14.000Z,67.50
2022-07-30T02:23:14.000Z,67.36
2022-07-30T02:24:14.000Z,69.09
2022-07-30T02:25:16.000Z,68.35
2022-07-30T02:26:14.000Z,67.87
2022-07-30T02:27:14.000Z,68.73
2022-07-30T02:28:13.000Z,68.50
2022-07-30T02:29:12.000Z,68.44
2022-07-30T02:30:11.000Z,68.37
2022-07-30T02:31:15.000Z,68.59
2022-07-30T02:32:14.000Z,68.27
2022-07-30T02:33:15.000Z,68.15
2022-07-30T02:34:15.000Z,68.11
2022-07-30T02:35:18.000Z,67.93
2022-07-30T02:36:13.000Z,67.69
2022-07-30T02:37:13.000Z,68.09
2022-07-30T02:38:14.000Z,67.96
2022-07-30T02:39:13.000Z,67.64
2022-07-30T02:40:16.000Z,67.51
2022-07-30T02:41:11.000Z,68.60
2022-07-30T02:42:12.000Z,68.01
2022-07-30T02:43:13.000Z,68.19
2022-07-30T02:44:11.000Z,68.40
2022-07-30T02:45:14.000Z,68.30
2022-07-30T02:46:12.000Z,68.00
2022-07-30T02:47:14.000Z,69.03
2022-07-30T02:48:12.000Z,68.56
2022-07-30T02:49:13.000Z,68.84
2022-07-30T02:50:12.000Z,68.26
2022-07-30T02:51:15.000Z,68.09
2022-07-30T02:52:15.000Z,68.06
2022-07-30T02:53:14.000Z,67.86
2022-07-30T02:54:14.000Z,69.01
2022-07-30T02:55:11.000Z,69.09
2022-07-30T02:56:11.000Z,68.54
2022-07-30T02:57:13.000Z,68.26
2022-07-30T02:58:15.000Z,68.89
2022-07-30T02:59:12.000Z,68.84
2022-07-30T03:00:11.000Z,68.40
2022-07-30T03:01:14.000Z,68.78
2022-07-30T03:02:12.000Z,68.48
2022-07-30T03:03:11.000Z,67.91
2022-07-30T03:04:12.000Z,67.84
2022-07-30T03:05:13.000Z,67.95
2022-07-30T03:06:13.000Z,68.65
2022-07-30T03:07:11.000Z,68.70
2022-07-30T03:08:12.000Z,68.40
2022-07-30T03:09:10.000Z,68.57
2022-07-30T03:10:11.000Z,68.80
2022-07-30T03:11:11.000Z,68.84
2022-07-30T03:12:12.000Z,68.26
2022-07-30T03:13:12.000Z,67.94
2022-07-30T03:14:10.000Z,68.60
2022-07-30T03:15:10.000Z,68.88
2022-07-30T03:16:11.000Z,68.45
2022-07-30T03:17:13.000Z,67.89
2022-07-30T03:18:12.000Z,67.66
2022-07-30T03:19:12.000Z,67.69
2022-07-30T03:20:13.000Z,67.63
2022-07-30T03:21:11.000Z,67.44
2022-07-30T03:22:12.000Z,68.27
2022-07-30T03:23:14.000Z,67.77
2022-07-30T03:24:12.000Z,67.72
2022-07-30T03:25:14.000Z,67.65
2022-07-30T03:26:12.000Z,67.87
2022-07-30T03:27:12.000Z,67.84
2022-07-30T03:28:12.000Z,67.38
2022-07-30T03:29:12.000Z,67.99
2022-07-30T03:30:11.000Z,68.27
2022-07-30T03:31:13.000Z,68.19
2022-07-30T03:32:10.000Z,68.42
2022-07-30T03:33:11.000Z,68.05
2022-07-30T03:34:11.000Z,68.11
2022-07-30T03:35:11.000Z,68.17
2022-07-30T03:36:11.000Z,68.40
2022-07-30T03:37:10.000Z,68.33
2022-07-30T03:38:14.000Z,67.88
2022-07-30T03:39:11.000Z,67.82
2022-07-30T03:40:12.000Z,67.94
2022-07-30T03:41:11.000Z,67.82
2022-07-30T03:42:10.000Z,67.85
2022-07-30T03:43:12.000Z,68.41
2022-07-30T03:44:10.000Z,68.06
2022-07-30T03:45:13.000Z,68.06
2022-07-30T03:46:12.000Z,67.79
2022-07-30T03:47:12.000Z,68.20
2022-07-30T03:48:12.000Z,68.21
2022-07-30T03:49:11.000Z,68.08
2022-07-30T03:50:12.000Z,68.65
2022-07-30T03:51:11.000Z,68.43
2022-07-30T03:52:10.000Z,68.01
2022-07-30T03:53:10.000Z,68.56
2022-07-30T03:54:11.000Z,67.97
2022-07-30T03:55:11.000Z,67.93
2022-07-30T03:56:12.000Z,68.28
2022-07-30T03:57:11.000Z,67.84
2022-07-30T03:58:10.000Z,67.54
2022-07-30T03:59:11.000Z,67.45
2022-07-30T04:00:13.000Z,67.61
2022-07-30T04:01:10.000Z,68.41
2022-07-30T04:02:11.000Z,67.89
2022-07-30T04:03:11.000Z,67.79
2022-07-30T04:04:10.000Z,67.50
2022-07-30T04:05:11.000Z,68.05
2022-07-30T04:06:10.000Z,68.19
2022-07-30T04:07:10.000Z,68.18
2022-07-30T04:08:10.000Z,67.97
2022-07-30T04:09:11.000Z,67.92
2022-07-30T04:10:12.000Z,68.57
2022-07-30T04:11:11.000Z,68.22
2022-07-30T04:12:12.000Z,68.43
2022-07-30T04:13:11.000Z,68.03
2022-07-30T04:14:10.000Z,68.86
2022-07-30T04:15:12.000Z,69.06
2022-07-30T04:15:12.000Z,69.06
2022-07-30T04:15:12.000Z,69.06
2022-07-30T04:17:00.000Z,69.35
2022-07-30T04:17:23.000Z,68.98
2022-07-30T04:18:14.000Z,68.69
2022-07-30T04:19:24.000Z,68.65
2022-07-30T04:20:16.000Z,69.15
2022-07-30T04:21:14.000Z,69.24
2022-07-30T04:22:14.000Z,68.71
2022-07-30T04:23:11.000Z,68.52
2022-07-30T04:24:12.000Z,68.53
2022-07-30T04:25:12.000Z,69.34
2022-07-30T04:26:12.000Z,68.71
2022-07-30T04:27:11.000Z,68.72
2022-07-30T04:28:12.000Z,68.36
2022-07-30T04:29:11.000Z,68.56
2022-07-30T04:30:11.000Z,68.50
2022-07-30T04:31:11.000Z,68.94
2022-07-30T04:32:11.000Z,68.62
2022-07-30T04:33:11.000Z,68.16
2022-07-30T04:34:14.000Z,68.99
2022-07-30T04:35:11.000Z,69.96
2022-07-30T04:36:11.000Z,69.14
2022-07-30T04:37:11.000Z,69.15
2022-07-30T04:38:12.000Z,68.93
2022-07-30T04:39:11.000Z,68.71
2022-07-30T04:40:11.000Z,68.93
2022-07-30T04:41:11.000Z,69.08
2022-07-30T04:42:12.000Z,69.11
2022-07-30T04:43:11.000Z,68.98
2022-07-30T04:44:11.000Z,68.84
2022-07-30T04:45:11.000Z,69.08
2022-07-30T04:46:13.000Z,69.25
2022-07-30T04:47:11.000Z,68.54
2022-07-30T04:48:11.000Z,68.90
2022-07-30T04:49:12.000Z,68.88
2022-07-30T04:50:12.000Z,68.71
2022-07-30T04:51:16.000Z,68.78
2022-07-30T04:52:11.000Z,69.04
2022-07-30T04:53:11.000Z,69.31
2022-07-30T04:54:12.000Z,68.49
2022-07-30T04:55:12.000Z,68.64
2022-07-30T04:56:12.000Z,68.44
2022-07-30T04:57:13.000Z,69.09
2022-07-30T04:58:12.000Z,68.90
2022-07-30T04:59:11.000Z,68.33
2022-07-30T05:00:11.000Z,68.78
2022-07-30T05:01:17.000Z,68.63
2022-07-30T05:02:13.000Z,68.99
2022-07-30T05:03:12.000Z,68.87
2022-07-30T05:04:12.000Z,68.56
2022-07-30T05:05:14.000Z,68.66
2022-07-30T05:06:11.000Z,68.76
2022-07-30T05:07:12.000Z,68.78
2022-07-30T05:08:11.000Z,68.09
2022-07-30T05:09:13.000Z,68.60
2022-07-30T05:10:11.000Z,68.72
2022-07-30T05:11:11.000Z,68.36
2022-07-30T05:12:11.000Z,68.58
2022-07-30T05:13:12.000Z,68.40
2022-07-30T05:14:11.000Z,68.30
2022-07-30T05:15:11.000Z,68.26
2022-07-30T05:16:11.000Z,68.10
2022-07-30T05:17:11.000Z,68.67
2022-07-30T05:18:11.000Z,68.65
2022-07-30T05:19:11.000Z,68.76
2022-07-30T05:20:11.000Z,68.43
2022-07-30T05:21:11.000Z,69.02
2022-07-30T05:22:11.000Z,68.59
2022-07-30T05:23:11.000Z,68.51
2022-07-30T05:24:11.000Z,68.05
2022-07-30T05:25:11.000Z,67.94
2022-07-30T05:26:11.000Z,67.75
2022-07-30T05:27:11.000Z,67.66
2022-07-30T05:28:11.000Z,67.64
2022-07-30T05:29:11.000Z,67.24
2022-07-30T05:30:11.000Z,67.15
2022-07-30T05:31:11.000Z,67.15
2022-07-30T05:32:11.000Z,67.09
2022-07-30T05:33:11.000Z,67.40
2022-07-30T05:34:11.000Z,66.85
2022-07-30T05:35:11.000Z,66.96
2022-07-30T05:36:11.000Z,66.92
2022-07-30T05:37:11.000Z,66.87
2022-07-30T05:38:11.000Z,66.93
2022-07-30T05:39:11.000Z,66.74
2022-07-30T05:40:11.000Z,66.76
2022-07-30T05:41:10.000Z,66.66
2022-07-30T05:42:10.000Z,66.52
2022-07-30T05:43:10.000Z,66.75
2022-07-30T05:44:10.000Z,66.45
2022-07-30T05:45:10.000Z,66.65
2022-07-30T05:46:11.000Z,66.42
2022-07-30T05:47:10.000Z,66.33
2022-07-30T05:48:10.000Z,66.06
2022-07-30T05:49:11.000Z,65.95
2022-07-30T05:50:11.000Z,65.76
2022-07-30T05:51:10.000Z,65.68
2022-07-30T05:52:10.000Z,65.87
2022-07-30T05:53:10.000Z,65.73
2022-07-30T05:54:10.000Z,65.49
2022-07-30T05:55:10.000Z,65.58
2022-07-30T05:56:11.000Z,65.46
2022-07-30T05:57:10.000Z,65.87
2022-07-30T05:58:10.000Z,65.96
2022-07-30T05:59:10.000Z,65.70
2022-07-30T06:00:11.000Z,65.34
2022-07-30T06:01:10.000Z,65.19
2022-07-30T06:02:10.000Z,65.22
2022-07-30T06:03:11.000Z,64.97
2022-07-30T06:04:11.000Z,65.14
2022-07-30T06:05:11.000Z,64.87
2022-07-30T06:06:10.000Z,64.82
2022-07-30T06:07:10.000Z,65.06
2022-07-30T06:08:10.000Z,64.76
2022-07-30T06:09:10.000Z,64.49
2022-07-30T06:10:10.000Z,64.53
2022-07-30T06:11:10.000Z,64.73
2022-07-30T06:12:11.000Z,64.63
2022-07-30T06:13:11.000Z,64.38
2022-07-30T06:14:11.000Z,64.36
2022-07-30T06:15:11.000Z,64.29
2022-07-30T06:16:11.000Z,64.28
2022-07-30T06:17:11.000Z,64.34
2022-07-30T06:18:11.000Z,64.23
2022-07-30T06:19:11.000Z,64.09
2022-07-30T06:20:12.000Z,64.05
2022-07-30T06:21:11.000Z,64.37
2022-07-30T06:22:11.000Z,64.05
2022-07-30T06:23:11.000Z,64.15
2022-07-30T06:24:11.000Z,64.11
2022-07-30T06:25:11.000Z,64.03
2022-07-30T06:26:11.000Z,64.03
2022-07-30T06:27:11.000Z,64.07
2022-07-30T06:28:11.000Z,63.91
2022-07-30T06:29:11.000Z,63.87
2022-07-30T06:30:11.000Z,63.66
2022-07-30T06:31:11.000Z,63.85
2022-07-30T06:32:11.000Z,63.13
2022-07-30T06:33:11.000Z,63.49
2022-07-30T06:34:11.000Z,63.21
2022-07-30T06:35:11.000Z,62.91
2022-07-30T06:36:12.000Z,63.02
2022-07-30T06:37:11.000Z,62.46
2022-07-30T06:38:11.000Z,62.46
2022-07-30T06:39:11.000Z,62.42
2022-07-30T06:40:11.000Z,62.65
2022-07-30T06:41:11.000Z,62.56
2022-07-30T06:42:10.000Z,62.64
2022-07-30T06:43:10.000Z,62.56
2022-07-30T06:44:10.000Z,62.65
2022-07-30T06:45:10.000Z,63.07
2022-07-30T06:46:10.000Z,63.72
2022-07-30T06:47:10.000Z,63.13
2022-07-30T06:48:10.000Z,62.59
2022-07-30T06:49:10.000Z,61.05
2022-07-30T06:50:10.000Z,61.03
2022-07-30T06:51:10.000Z,61.34
2022-07-30T06:52:10.000Z,61.49
2022-07-30T06:53:10.000Z,60.84
2022-07-30T06:54:10.000Z,60.52
2022-07-30T06:55:10.000Z,60.22
2022-07-30T06:56:11.000Z,60.32
2022-07-30T06:57:10.000Z,59.93
2022-07-30T06:58:10.000Z,59.92
2022-07-30T06:59:10.000Z,59.91
2022-07-30T07:00:10.000Z,58.93
2022-07-30T07:01:10.000Z,59.05
2022-07-30T07:02:10.000Z,59.49
2022-07-30T07:03:10.000Z,60.52
2022-07-30T07:04:10.000Z,60.85
2022-07-30T07:05:10.000Z,60.60
2022-07-30T07:06:10.000Z,60.13
2022-07-30T07:07:10.000Z,59.67
2022-07-30T07:08:10.000Z,59.44
2022-07-30T07:09:10.000Z,59.03
2022-07-30T07:10:10.000Z,59.48
2022-07-30T07:11:10.000Z,59.94
2022-07-30T07:12:10.000Z,59.01
2022-07-30T07:13:11.000Z,58.75
2022-07-30T07:14:11.000Z,58.46
2022-07-30T07:15:11.000Z,57.56
2022-07-30T07:16:11.000Z,56.72
2022-07-30T07:17:12.000Z,56.65
2022-07-30T07:18:11.000Z,56.73
2022-07-30T07:19:10.000Z,56.97
2022-07-30T07:20:11.000Z,56.39
2022-07-30T07:21:11.000Z,56.21
2022-07-30T07:22:11.000Z,56.93
2022-07-30T07:23:11.000Z,56.84
2022-07-30T07:24:11.000Z,56.45
2022-07-30T07:25:11.000Z,56.74
2022-07-30T07:26:11.000Z,56.83
2022-07-30T07:27:11.000Z,56.33
2022-07-30T07:28:11.000Z,56.69
2022-07-30T07:29:11.000Z,56.65
2022-07-30T07:30:11.000Z,55.85
2022-07-30T07:31:11.000Z,56.05
2022-07-30T07:31:11.000Z,56.05
2022-07-30T07:32:11.000Z,55.48
2022-07-30T07:33:11.000Z,54.91
2022-07-30T07:34:11.000Z,54.87
2022-07-30T07:35:12.000Z,54.52
2022-07-30T07:36:11.000Z,54.47
2022-07-30T07:37:11.000Z,54.48
2022-07-30T07:38:11.000Z,54.63
2022-07-30T07:39:11.000Z,54.62
2022-07-30T07:40:11.000Z,54.73
2022-07-30T07:41:11.000Z,54.68
2022-07-30T07:42:11.000Z,54.75
2022-07-30T07:43:11.000Z,54.74
2022-07-30T07:44:11.000Z,55.00
2022-07-30T07:45:11.000Z,54.89
2022-07-30T07:46:15.000Z,55.27
2022-07-30T07:47:11.000Z,55.28
2022-07-30T07:48:11.000Z,55.48
2022-07-30T07:49:11.000Z,55.54
2022-07-30T07:50:14.000Z,55.54
2022-07-30T07:51:11.000Z,55.57
2022-07-30T07:52:11.000Z,55.16
2022-07-30T07:53:11.000Z,54.72
2022-07-30T07:54:11.000Z,54.71
2022-07-30T07:55:11.000Z,54.51
2022-07-30T07:56:11.000Z,54.58
2022-07-30T07:57:11.000Z,54.78
2022-07-30T07:58:12.000Z,54.60
2022-07-30T07:59:11.000Z,54.44
2022-07-30T08:00:13.000Z,54.60
2022-07-30T08:01:11.000Z,54.34
2022-07-30T08:02:11.000Z,54.74
2022-07-30T08:03:11.000Z,54.58
2022-07-30T08:04:11.000Z,54.26
2022-07-30T08:05:11.000Z,53.56
2022-07-30T08:06:11.000Z,53.79
2022-07-30T08:07:11.000Z,53.19
2022-07-30T08:08:11.000Z,52.99
2022-07-30T08:09:11.000Z,52.84
2022-07-30T08:10:13.000Z,53.04
2022-07-30T08:11:11.000Z,52.92
2022-07-30T08:12:13.000Z,53.15
2022-07-30T08:13:10.000Z,52.70
2022-07-30T08:14:10.000Z,52.50
2022-07-30T08:15:10.000Z,52.77
2022-07-30T08:16:10.000Z,52.76
2022-07-30T08:17:10.000Z,52.98
2022-07-30T08:18:11.000Z,53.14
2022-07-30T08:19:10.000Z,53.32
2022-07-30T08:20:12.000Z,53.17
2022-07-30T08:21:10.000Z,53.22
2022-07-30T08:22:10.000Z,53.11
2022-07-30T08:23:10.000Z,53.02
2022-07-30T08:24:10.000Z,52.81
2022-07-30T08:25:10.000Z,53.08
2022-07-30T08:26:10.000Z,52.78
2022-07-30T08:27:10.000Z,52.21
2022-07-30T08:28:10.000Z,52.42
2022-07-30T08:29:10.000Z,52.45
2022-07-30T08:30:11.000Z,52.47
2022-07-30T08:31:10.000Z,52.37
2022-07-30T08:32:10.000Z,52.90
2022-07-30T08:33:10.000Z,52.77
2022-07-30T08:34:11.000Z,52.52
2022-07-30T08:35:10.000Z,52.40
2022-07-30T08:36:10.000Z,52.33
2022-07-30T08:37:10.000Z,52.38
2022-07-30T08:38:11.000Z,52.21
2022-07-30T08:39:10.000Z,52.51
2022-07-30T08:40:10.000Z,51.98
2022-07-30T08:41:11.000Z,52.25
2022-07-30T08:42:12.000Z,51.60
2022-07-30T08:43:10.000Z,51.40
2022-07-30T08:44:11.000Z,50.85
2022-07-30T08:45:12.000Z,51.46
2022-07-30T08:46:13.000Z,51.66
2022-07-30T08:47:15.000Z,51.36
2022-07-30T08:48:12.000Z,51.41
2022-07-30T08:49:11.000Z,51.06
2022-07-30T08:50:11.000Z,51.58
2022-07-30T08:51:11.000Z,51.53
2022-07-30T08:52:11.000Z,50.90
2022-07-30T08:53:12.000Z,50.03
2022-07-30T08:54:11.000Z,50.39
2022-07-30T08:55:11.000Z,50.58
2022-07-30T08:56:11.000Z,51.04
2022-07-30T08:57:11.000Z,51.19
2022-07-30T08:58:25.000Z,51.06
2022-07-30T08:59:11.000Z,51.02
2022-07-30T09:00:11.000Z,51.37
2022-07-30T09:01:10.000Z,50.80
2022-07-30T09:02:11.000Z,50.33
2022-07-30T09:03:11.000Z,49.83
2022-07-30T09:04:10.000Z,50.12
2022-07-30T09:05:11.000Z,49.41
2022-07-30T09:06:11.000Z,48.23
2022-07-30T09:07:10.000Z,48.99
2022-07-30T09:08:11.000Z,48.86
2022-07-30T09:09:10.000Z,48.92
2022-07-30T09:10:11.000Z,49.28
2022-07-30T09:11:11.000Z,50.01
2022-07-30T09:12:21.000Z,49.94
2022-07-30T09:13:21.000Z,50.10
2022-07-30T09:14:13.000Z,49.79
2022-07-30T09:15:19.000Z,50.40
2022-07-30T09:16:22.000Z,49.57
2022-07-30T09:17:10.000Z,49.18
2022-07-30T09:18:10.000Z,48.60
2022-07-30T09:19:16.000Z,48.40
2022-07-30T09:20:11.000Z,48.19
2022-07-30T09:21:17.000Z,46.75
2022-07-30T09:22:14.000Z,46.71
2022-07-30T09:23:10.000Z,46.97
2022-07-30T09:24:11.000Z,47.11
2022-07-30T09:25:11.000Z,46.55
2022-07-30T09:26:10.000Z,46.15
2022-07-30T09:27:10.000Z,46.22
2022-07-30T09:28:11.000Z,45.85
2022-07-30T09:29:15.000Z,45.77
2022-07-30T09:30:11.000Z,46.02
2022-07-30T09:31:10.000Z,45.77
2022-07-30T09:32:10.000Z,45.75
2022-07-30T09:33:11.000Z,45.93
2022-07-30T09:34:20.000Z,45.85
2022-07-30T09:35:11.000Z,45.94
2022-07-30T09:36:16.000Z,45.58
2022-07-30T09:37:17.000Z,46.57
2022-07-30T09:38:11.000Z,46.33
2022-07-30T09:39:10.000Z,46.51
2022-07-30T09:40:13.000Z,46.64
2022-07-30T09:41:11.000Z,45.62
2022-07-30T09:42:17.000Z,45.02
2022-07-30T09:43:11.000Z,44.87
2022-07-30T09:44:22.000Z,44.34
2022-07-30T09:45:12.000Z,44.27
2022-07-30T09:46:11.000Z,44.27
2022-07-30T09:47:30.000Z,44.88
2022-07-30T09:48:19.000Z,44.69
2022-07-30T09:49:15.000Z,44.65
2022-07-30T09:50:12.000Z,45.42
2022-07-30T09:51:11.000Z,45.33
2022-07-30T09:52:25.000Z,44.55
2022-07-30T09:53:10.000Z,44.49
2022-07-30T09:54:10.000Z,45.12
2022-07-30T09:55:11.000Z,44.80
2022-07-30T09:56:20.000Z,45.47
2022-07-30T09:57:10.000Z,44.63
2022-07-30T09:58:10.000Z,44.78
2022-07-30T09:59:23.000Z,44.96
2022-07-30T10:00:17.000Z,44.99
2022-07-30T10:01:10.000Z,45.03
2022-07-30T10:02:10.000Z,44.97
2022-07-30T10:03:19.000Z,44.67
2022-07-30T10:04:22.000Z,45.19
2022-07-30T10:05:12.000Z,45.46
2022-07-30T10:06:10.000Z,45.17
2022-07-30T10:07:16.000Z,44.82
2022-07-30T10:08:11.000Z,44.85
2022-07-30T10:09:23.000Z,44.53
2022-07-30T10:10:10.000Z,44.77
2022-07-30T10:11:17.000Z,44.53
2022-07-30T10:12:12.000Z,44.72
2022-07-30T10:13:12.000Z,44.91
2022-07-30T10:14:10.000Z,44.78
2022-07-30T10:15:13.000Z,45.29
2022-07-30T10:16:10.000Z,44.79
2022-07-30T10:17:11.000Z,44.51
2022-07-30T10:18:11.000Z,44.59
2022-07-30T10:19:11.000Z,44.76
2022-07-30T10:20:11.000Z,45.81
2022-07-30T10:21:11.000Z,45.83
2022-07-30T10:22:13.000Z,45.30
2022-07-30T10:23:11.000Z,45.30
2022-07-30T10:24:12.000Z,45.20
2022-07-30T10:25:11.000Z,44.22
2022-07-30T10:26:11.000Z,44.49
2022-07-30T10:27:10.000Z,43.86
2022-07-30T10:28:10.000Z,42.87
2022-07-30T10:29:11.000Z,43.43
2022-07-30T10:30:11.000Z,43.46
2022-07-30T10:31:11.000Z,43.91
2022-07-30T10:32:11.000Z,44.17
2022-07-30T10:33:11.000Z,43.31
2022-07-30T10:34:12.000Z,43.08
2022-07-30T10:35:12.000Z,42.96
2022-07-30T10:36:11.000Z,43.54
2022-07-30T10:37:13.000Z,42.61
2022-07-30T10:38:14.000Z,42.73
2022-07-30T10:39:16.000Z,42.90
2022-07-30T10:40:24.000Z,43.07
2022-07-30T10:41:34.000Z,42.85
2022-07-30T10:42:33.000Z,42.91
2022-07-30T10:43:20.000Z,41.66
2022-07-30T10:44:25.000Z,41.77
2022-07-30T10:45:16.000Z,41.68
2022-07-30T10:46:20.000Z,40.26
2022-07-30T10:47:15.000Z,40.98
2022-07-30T10:48:11.000Z,40.29
2022-07-30T10:49:12.000Z,41.67
2022-07-30T10:50:14.000Z,40.85
2022-07-30T10:51:10.000Z,41.18
2022-07-30T10:52:10.000Z,41.45
2022-07-30T10:53:30.000Z,41.39
2022-07-30T10:54:20.000Z,41.33
2022-07-30T10:55:12.000Z,41.30
2022-07-30T10:56:17.000Z,41.88
2022-07-30T10:57:16.000Z,42.17
2022-07-30T10:58:12.000Z,42.07
2022-07-30T10:59:10.000Z,41.31
2022-07-30T11:00:11.000Z,40.12
2022-07-30T11:01:10.000Z,39.85
2022-07-30T11:02:10.000Z,40.02
2022-07-30T11:03:17.000Z,40.19
2022-07-30T11:04:19.000Z,40.61
2022-07-30T11:05:30.000Z,40.15
2022-07-30T11:06:28.000Z,40.13
2022-07-30T11:07:20.000Z,40.91
2022-07-30T11:08:20.000Z,40.97
2022-07-30T11:09:31.000Z,40.90
2022-07-30T11:10:20.000Z,40.32
2022-07-30T11:11:20.000Z,40.44
2022-07-30T11:12:10.000Z,40.52
2022-07-30T11:13:10.000Z,40.39
2022-07-30T11:14:11.000Z,40.58
2022-07-30T11:15:12.000Z,40.23
2022-07-30T11:16:10.000Z,39.75
2022-07-30T11:17:11.000Z,39.77
2022-07-30T11:18:09.000Z,40.11
2022-07-30T11:19:16.000Z,39.73
2022-07-30T11:20:11.000Z,39.88
2022-07-30T11:21:16.000Z,40.01
2022-07-30T11:22:20.000Z,40.23
2022-07-30T11:23:32.000Z,40.25
2022-07-30T11:24:20.000Z,39.78
2022-07-30T11:25:21.000Z,39.52
2022-07-30T11:26:30.000Z,39.92
2022-07-30T11:27:29.000Z,39.40
2022-07-30T11:28:32.000Z,38.79
2022-07-30T11:29:20.000Z,38.72
2022-07-30T11:30:30.000Z,39.22
2022-07-30T11:31:20.000Z,39.20
2022-07-30T11:32:20.000Z,38.46
2022-07-30T11:33:20.000Z,39.09
2022-07-30T11:34:33.000Z,38.90
2022-07-30T11:35:19.000Z,38.45
2022-07-30T11:36:10.000Z,38.16
2022-07-30T11:37:14.000Z,37.85
2022-07-30T11:38:15.000Z,38.27
2022-07-30T11:39:09.000Z,38.00
2022-07-30T11:40:10.000Z,37.99
2022-07-30T11:41:09.000Z,38.13
2022-07-30T11:42:23.000Z,38.16
2022-07-30T11:43:29.000Z,37.80
2022-07-30T11:44:20.000Z,38.02
2022-07-30T11:45:18.000Z,38.75
2022-07-30T11:46:13.000Z,38.24
2022-07-30T11:47:10.000Z,38.45
2022-07-30T11:48:14.000Z,38.68
2022-07-30T11:49:11.000Z,38.53
2022-07-30T11:50:26.000Z,38.87
2022-07-30T11:51:10.000Z,38.76
2022-07-30T11:52:10.000Z,39.43
2022-07-30T11:53:18.000Z,38.62
2022-07-30T11:54:11.000Z,38.15
2022-07-30T11:55:20.000Z,38.66
2022-07-30T11:56:12.000Z,38.41
2022-07-30T11:57:10.000Z,38.53
2022-07-30T11:58:23.000Z,38.55
2022-07-30T11:59:10.000Z,38.75
2022-07-30T12:00:10.000Z,38.77
2022-07-30T12:01:13.000Z,39.12
2022-07-30T12:02:10.000Z,38.76
2022-07-30T12:03:12.000Z,38.97
2022-07-30T12:04:10.000Z,38.54
2022-07-30T12:05:11.000Z,38.65
2022-07-30T12:06:14.000Z,38.61
2022-07-30T12:07:10.000Z,38.54
2022-07-30T12:08:11.000Z,38.36
2022-07-30T12:09:10.000Z,38.19
2022-07-30T12:10:14.000Z,38.19
2022-07-30T12:11:11.000Z,37.99
2022-07-30T12:12:25.000Z,38.04
2022-07-30T12:13:13.000Z,38.94
2022-07-30T12:14:10.000Z,38.35
2022-07-30T12:15:30.000Z,38.87
2022-07-30T12:16:15.000Z,38.90
2022-07-30T12:17:10.000Z,38.29
2022-07-30T12:18:12.000Z,38.56
2022-07-30T12:19:10.000Z,37.65
2022-07-30T12:20:16.000Z,37.73
2022-07-30T12:21:12.000Z,37.82
2022-07-30T12:22:10.000Z,37.50
2022-07-30T12:23:11.000Z,37.73
2022-07-30T12:24:10.000Z,37.50
2022-07-30T12:25:11.000Z,37.18
2022-07-30T12:26:19.000Z,37.06
2022-07-30T12:27:11.000Z,37.05
2022-07-30T12:28:28.000Z,36.51
2022-07-30T12:29:12.000Z,36.11
2022-07-30T12:30:10.000Z,36.69
2022-07-30T12:31:14.000Z,37.00
2022-07-30T12:32:10.000Z,36.09
2022-07-30T12:33:10.000Z,36.23
2022-07-30T12:34:19.000Z,35.58
2022-07-30T12:35:10.000Z,35.70
2022-07-30T12:36:32.000Z,35.94
2022-07-30T12:37:10.000Z,35.98
2022-07-30T12:38:11.000Z,35.48
2022-07-30T12:39:18.000Z,35.53
2022-07-30T12:40:12.000Z,35.45
2022-07-30T12:41:10.000Z,36.05
2022-07-30T12:42:18.000Z,36.13
2022-07-30T12:43:10.000Z,36.40
2022-07-30T12:44:30.000Z,35.94
2022-07-30T12:45:29.000Z,35.79
2022-07-30T12:46:13.000Z,35.60
2022-07-30T12:47:20.000Z,35.43
2022-07-30T12:48:10.000Z,35.01
2022-07-30T12:49:09.000Z,34.30